createdAt,value
2023-12-24T00:00:26.608Z,95838.19
2023-12-24T00:03:01.520Z,95840.77
2023-12-24T00:05:35.438Z,95851.02
2023-12-24T00:08:09.855Z,95843.30
2023-12-24T00:10:43.763Z,95850.98
2023-12-24T00:13:17.793Z,95855.27
2023-12-24T00:15:51.698Z,95842.42
2023-12-24T00:18:25.395Z,95839.86
2023-12-24T00:20:59.541Z,95840.72
2023-12-24T00:23:33.359Z,95849.28
2023-12-24T00:26:07.183Z,95845.02
2023-12-24T00:28:41.417Z,95849.30
2023-12-24T00:31:15.335Z,95840.77
2023-12-24T00:33:48.972Z,95835.61
2023-12-24T00:36:23.487Z,95832.20
2023-12-24T00:38:57.002Z,95827.06
2023-12-24T00:41:31.739Z,95826.23
2023-12-24T00:44:06.334Z,95821.94
2023-12-24T00:46:40.304Z,95823.64
2023-12-24T00:49:14.829Z,95834.77
2023-12-24T00:54:31.694Z,95830.38
2023-12-24T00:57:05.468Z,95830.48
2023-12-24T00:59:40.311Z,95828.73
2023-12-24T01:02:14.153Z,95825.35
2023-12-24T01:04:47.944Z,95823.63
2023-12-24T01:07:21.333Z,95821.87
2023-12-24T01:09:54.890Z,95816.75
2023-12-24T01:12:28.587Z,95810.76
2023-12-24T01:15:02.257Z,95814.19
2023-12-24T01:17:36.381Z,95818.46
2023-12-24T01:20:17.743Z,95818.46
2023-12-24T01:22:52.022Z,95809.07
2023-12-24T01:25:25.777Z,95810.79
2023-12-24T01:27:59.310Z,95806.53
2023-12-24T01:30:32.807Z,95797.98
2023-12-24T01:33:07.305Z,95794.59
2023-12-24T01:35:43.110Z,95788.61
2023-12-24T01:38:16.752Z,95794.64
2023-12-24T01:40:51.301Z,95793.81
2023-12-24T01:43:24.753Z,95797.26
2023-12-24T01:45:58.639Z,95788.73
2023-12-24T01:48:32.292Z,95779.33
2023-12-24T01:51:06.471Z,95779.33
2023-12-24T01:53:41.196Z,95777.63
2023-12-24T01:56:18.573Z,95770.80
2023-12-24T01:58:53.851Z,95763.98
2023-12-24T02:01:28.846Z,95781.13
2023-12-24T02:04:02.472Z,95786.22
2023-12-24T02:06:36.613Z,95790.52
2023-12-24T02:09:10.342Z,95775.99
2023-12-24T02:11:43.961Z,95787.97
2023-12-24T02:14:17.947Z,95786.28
2023-12-24T02:16:53.314Z,95780.27
2023-12-24T02:19:27.333Z,95788.02
2023-12-24T02:22:00.695Z,95782.88
2023-12-24T02:24:34.198Z,95787.16
2023-12-24T02:27:13.555Z,95787.16
2023-12-24T02:29:50.033Z,95788.02
2023-12-24T02:32:26.870Z,95782.88
2023-12-24T02:35:02.980Z,95789.77
2023-12-24T02:37:36.699Z,95790.60
2023-12-24T02:40:11.891Z,95797.44
2023-12-24T02:42:46.042Z,95786.31
2023-12-24T02:45:19.763Z,95788.89
2023-12-24T02:47:53.529Z,95794.86
2023-12-24T02:50:27.642Z,95796.58
2023-12-24T02:53:01.272Z,95794.02
2023-12-24T02:55:34.705Z,95797.42
2023-12-24T02:58:08.582Z,95791.44
2023-12-24T03:00:42.178Z,95797.42
2023-12-24T03:03:16.153Z,95794.86
2023-12-24T03:05:49.603Z,95788.88
2023-12-24T03:08:23.311Z,95788.02
2023-12-24T03:10:56.753Z,95802.57
2023-12-24T03:13:30.513Z,95807.72
2023-12-24T03:16:04.277Z,95803.45
2023-12-24T03:18:38.066Z,95799.15
2023-12-24T03:21:11.686Z,95799.98
2023-12-24T03:23:45.307Z,95807.70
2023-12-24T03:26:25.857Z,95803.41
2023-12-24T03:29:00.966Z,95793.98
2023-12-24T03:31:35.266Z,95794.81
2023-12-24T03:34:08.875Z,95801.72
2023-12-24T03:36:44.241Z,95806.83
2023-12-24T03:39:18.799Z,95800.86
2023-12-24T03:41:52.310Z,95812.81
2023-12-24T03:44:26.223Z,95817.11
2023-12-24T03:47:00.329Z,95813.67
2023-12-24T03:49:33.813Z,95809.41
2023-12-24T03:52:08.645Z,95812.85
2023-12-24T03:54:42.456Z,95813.71
2023-12-24T03:57:16.473Z,95806.87
2023-12-24T03:59:49.981Z,95814.58
2023-12-24T04:02:25.352Z,95812.03
2023-12-24T04:04:59.160Z,95821.46
2023-12-24T04:07:34.414Z,95813.75
2023-12-24T04:10:09.565Z,95823.17
2023-12-24T04:12:43.463Z,95818.04
2023-12-24T04:15:17.792Z,95825.72
2023-12-24T04:17:51.562Z,95818.84
2023-12-24T04:20:25.173Z,95829.99
2023-12-24T04:22:59.189Z,95815.44
2023-12-24T04:25:33.084Z,95812.03
2023-12-24T04:28:08.227Z,95830.00
2023-12-24T04:30:43.438Z,95829.14
2023-12-24T04:33:17.352Z,95824.01
2023-12-24T04:35:52.232Z,95834.30
2023-12-24T04:38:27.179Z,95832.56
2023-12-24T04:41:00.904Z,95834.30
2023-12-24T04:43:34.416Z,95833.44
2023-12-24T04:46:08.820Z,95841.13
2023-12-24T04:48:44.011Z,95842.82
2023-12-24T04:51:17.760Z,95842.88
2023-12-24T04:53:51.450Z,95849.71
2023-12-24T04:56:26.038Z,95854.83
2023-12-24T04:59:00.043Z,95861.67
2023-12-24T05:01:34.309Z,95854.83
2023-12-24T05:04:08.195Z,95858.21
2023-12-24T05:06:41.897Z,95850.53
2023-12-24T05:09:16.232Z,95847.95
2023-12-24T05:11:49.941Z,95859.97
2023-12-24T05:14:23.967Z,95857.45
2023-12-24T05:16:57.872Z,95858.33
2023-12-24T05:19:31.425Z,95862.58
2023-12-24T05:22:05.039Z,95863.47
2023-12-24T05:24:38.679Z,95859.19
2023-12-24T05:27:12.562Z,95858.35
2023-12-24T05:29:45.909Z,95863.47
2023-12-24T05:32:19.388Z,95867.76
2023-12-24T05:34:53.074Z,95874.59
2023-12-24T05:37:26.683Z,95873.73
2023-12-24T05:40:00.200Z,95874.59
2023-12-24T05:42:35.228Z,95869.48
2023-12-24T05:45:12.983Z,95876.30
2023-12-24T05:47:46.757Z,95873.73
2023-12-24T05:50:21.658Z,95887.43
2023-12-24T05:52:56.407Z,95884.82
2023-12-24T05:55:29.774Z,95887.41
2023-12-24T05:58:03.332Z,95887.41
2023-12-24T06:00:37.511Z,95889.94
2023-12-24T06:03:11.038Z,95904.48
2023-12-24T06:05:44.879Z,95902.73
2023-12-24T06:08:18.678Z,95900.19
2023-12-24T06:10:52.345Z,95904.45
2023-12-24T06:13:26.020Z,95902.73
2023-12-24T06:15:59.674Z,95905.30
2023-12-24T06:18:33.533Z,95912.97
2023-12-24T06:21:09.293Z,95922.38
2023-12-24T06:23:42.903Z,95908.70
2023-12-24T06:26:16.512Z,95923.23
2023-12-24T06:28:50.100Z,95919.78
2023-12-24T06:31:26.974Z,95926.59
2023-12-24T06:34:00.543Z,95916.30
2023-12-24T06:36:34.026Z,95924.03
2023-12-24T06:39:08.121Z,95931.71
2023-12-24T06:41:42.951Z,95929.14
2023-12-24T06:44:16.544Z,95926.56
2023-12-24T06:46:50.439Z,95938.55
2023-12-24T06:49:24.367Z,95938.54
2023-12-24T06:51:58.009Z,95930.83
2023-12-24T06:54:31.487Z,95936.83
2023-12-24T06:57:05.514Z,95937.67
2023-12-24T06:59:39.679Z,95941.96
2023-12-24T07:02:13.187Z,95950.52
2023-12-24T07:04:46.945Z,95946.23
2023-12-24T07:07:20.536Z,95953.91
2023-12-24T07:09:54.247Z,95949.62
2023-12-24T07:12:29.962Z,95945.35
2023-12-24T07:15:04.777Z,95951.31
2023-12-24T07:17:38.504Z,95952.17
2023-12-24T07:20:14.616Z,95952.20
2023-12-24T07:22:48.195Z,95957.30
2023-12-24T07:25:22.036Z,95965.88
2023-12-24T07:27:55.717Z,95965.91
2023-12-24T07:30:29.555Z,95963.34
2023-12-24T07:33:03.371Z,95967.63
2023-12-24T07:35:37.183Z,95967.59
2023-12-24T07:38:11.182Z,95970.16
2023-12-24T07:40:44.736Z,95967.59
2023-12-24T07:43:18.163Z,95972.73
2023-12-24T07:45:51.763Z,95972.70
2023-12-24T07:48:26.854Z,95977.83
2023-12-24T07:51:00.268Z,95971.00
2023-12-24T07:53:33.752Z,95970.13
2023-12-24T07:56:09.161Z,95982.11
2023-12-24T07:58:42.835Z,95969.28
2023-12-24T08:01:16.265Z,95979.55
2023-12-24T08:03:49.680Z,95971.81
2023-12-24T08:06:28.452Z,95973.54
2023-12-24T08:08:58.846Z,95988.06
2023-12-24T08:11:32.968Z,95982.06
2023-12-24T08:14:06.527Z,95984.63
2023-12-24T08:16:40.546Z,95982.94
2023-12-24T08:19:14.272Z,96000.91
2023-12-24T08:21:48.064Z,95981.21
2023-12-24T08:24:21.713Z,95992.31
2023-12-24T08:26:55.991Z,95988.04
2023-12-24T08:29:29.796Z,95984.62
2023-12-24T08:32:03.696Z,95981.17
2023-12-24T08:34:40.000Z,95984.56
2023-12-24T08:37:13.386Z,95993.10
2023-12-24T08:39:47.158Z,95982.84
2023-12-24T08:42:20.595Z,95984.54
2023-12-24T08:44:54.475Z,95984.51
2023-12-24T08:47:28.436Z,95987.03
2023-12-24T08:50:02.110Z,95994.73
2023-12-24T08:52:36.970Z,95984.48
2023-12-24T08:55:13.307Z,95988.74
2023-12-24T08:57:47.177Z,95986.16
2023-12-24T09:00:23.233Z,95991.24
2023-12-24T09:02:58.043Z,95981.77
2023-12-24T09:05:32.536Z,95985.16
2023-12-24T09:08:07.036Z,95984.28
2023-12-24T09:10:42.518Z,95989.36
2023-12-24T09:13:16.543Z,95989.30
2023-12-24T09:15:49.910Z,95982.39
2023-12-24T09:18:23.591Z,95980.71
2023-12-24T09:20:57.019Z,95987.55
2023-12-24T09:23:30.856Z,96002.06
2023-12-24T09:26:04.641Z,96001.17
2023-12-24T09:28:38.664Z,95999.50
2023-12-24T09:31:12.307Z,96004.59
2023-12-24T09:33:46.853Z,96007.98
2023-12-24T09:36:20.565Z,96006.31
2023-12-24T09:38:54.325Z,96005.52
2023-12-24T09:41:27.909Z,96016.63
2023-12-24T09:44:02.231Z,96016.50
2023-12-24T09:46:36.016Z,96023.36
2023-12-24T09:49:09.744Z,96022.56
2023-12-24T09:51:44.857Z,96029.42
2023-12-24T09:54:18.198Z,96028.53
2023-12-24T09:56:52.018Z,96040.49
2023-12-24T09:59:25.880Z,96038.77
2023-12-24T10:01:59.385Z,96042.21
2023-12-24T10:04:33.164Z,96040.48
2023-12-24T10:07:08.188Z,96042.21
2023-12-24T10:09:49.620Z,96039.70
2023-12-24T10:12:23.560Z,96048.27
2023-12-24T10:15:00.410Z,96049.12
2023-12-24T10:17:37.468Z,96042.21
2023-12-24T10:20:13.009Z,96048.23
2023-12-24T10:22:47.251Z,96053.41
2023-12-24T10:25:22.190Z,96057.67
2023-12-24T10:27:59.532Z,96062.77
2023-12-24T10:30:33.095Z,96065.30
2023-12-24T10:33:14.434Z,96066.08
2023-12-24T10:35:50.790Z,96064.37
2023-12-24T10:38:24.382Z,96072.98
2023-12-24T10:40:58.046Z,96068.75
2023-12-24T10:43:32.416Z,96077.34
2023-12-24T10:46:06.365Z,96070.52
2023-12-24T10:48:40.075Z,96067.97
2023-12-24T10:51:13.901Z,96065.40
2023-12-24T10:53:48.088Z,96077.41
2023-12-24T10:56:25.257Z,96081.70
2023-12-24T10:59:02.172Z,96085.95
2023-12-24T11:01:36.235Z,96087.60
2023-12-24T11:04:09.985Z,96087.56
2023-12-24T11:06:49.757Z,96093.54
2023-12-24T11:09:45.866Z,96090.03
2023-12-24T11:12:34.953Z,96102.89
2023-12-24T11:15:11.782Z,96102.06
2023-12-24T11:17:54.789Z,96105.50
2023-12-24T11:20:42.108Z,96112.44
2023-12-24T11:23:17.576Z,96113.29
2023-12-24T11:25:53.608Z,96114.16
2023-12-24T11:28:39.892Z,96109.94
2023-12-24T11:31:14.032Z,96113.36
2023-12-24T11:33:51.585Z,96121.07
2023-12-24T11:36:28.442Z,96124.47
2023-12-24T11:39:02.350Z,96115.89
2023-12-24T11:41:36.053Z,96117.59
2023-12-24T11:44:09.991Z,96136.49
2023-12-24T11:46:43.822Z,96143.38
2023-12-24T11:49:19.049Z,96133.98
2023-12-24T11:51:52.557Z,96125.42
2023-12-24T11:54:26.203Z,96139.11
2023-12-24T11:56:59.963Z,96157.09
2023-12-24T11:59:33.557Z,96154.52
2023-12-24T12:02:08.127Z,96159.66
2023-12-24T12:04:41.725Z,96169.05
2023-12-24T12:07:15.719Z,96169.91
2023-12-24T12:09:49.346Z,96175.02
2023-12-24T12:12:23.203Z,96184.42
2023-12-24T12:14:56.758Z,96185.33
2023-12-24T12:17:30.353Z,96197.39
2023-12-24T12:20:04.592Z,96189.66
2023-12-24T12:22:38.653Z,96206.83
2023-12-24T12:25:12.936Z,96195.72
2023-12-24T12:27:48.601Z,96194.88
2023-12-24T12:30:23.438Z,96205.17
2023-12-24T12:32:57.599Z,96206.05
2023-12-24T12:35:31.987Z,96209.48
2023-12-24T12:38:06.131Z,96209.48
2023-12-24T12:40:44.327Z,96213.78
2023-12-24T12:43:15.470Z,96217.20
2023-12-24T12:45:52.195Z,96218.92
2023-12-24T12:48:24.439Z,96227.52
2023-12-24T12:50:58.984Z,96235.22
2023-12-24T12:53:32.680Z,96244.66
2023-12-24T12:56:08.970Z,96245.51
2023-12-24T12:58:44.514Z,96238.67
2023-12-24T13:01:18.061Z,96240.41
2023-12-24T13:04:01.405Z,96254.94
2023-12-24T13:06:35.533Z,96253.23
2023-12-24T13:09:10.775Z,96250.67
2023-12-24T13:11:44.827Z,96244.69
2023-12-24T13:14:19.078Z,96250.69
2023-12-24T13:16:53.389Z,96254.10
2023-12-24T13:19:28.941Z,96244.69
2023-12-24T13:22:02.453Z,96248.95
2023-12-24T13:24:36.578Z,96253.23
2023-12-24T13:27:10.107Z,96254.10
2023-12-24T13:29:44.042Z,96257.53
2023-12-24T13:32:17.628Z,96261.79
2023-12-24T13:34:51.363Z,96264.37
2023-12-24T13:37:24.875Z,96266.94
2023-12-24T13:39:58.532Z,96280.64
2023-12-24T13:42:33.655Z,96278.94
2023-12-24T13:45:10.131Z,96285.77
2023-12-24T13:47:44.132Z,96284.93
2023-12-24T13:50:18.016Z,96288.34
2023-12-24T13:52:54.328Z,96288.34
2023-12-24T13:55:28.846Z,96290.07
2023-12-24T13:58:02.592Z,96296.89
2023-12-24T14:00:36.927Z,96298.61
2023-12-24T14:03:10.380Z,96300.34
2023-12-24T14:05:45.725Z,96284.94
2023-12-24T14:08:20.185Z,96308.04
2023-12-24T14:10:53.942Z,96308.89
2023-12-24T14:13:27.918Z,96312.31
2023-12-24T14:16:03.967Z,96304.61
2023-12-24T14:18:37.741Z,96304.59
2023-12-24T14:21:11.372Z,96314.88
2023-12-24T14:23:45.095Z,96313.18
2023-12-24T14:26:18.774Z,96314.88
2023-12-24T14:28:52.854Z,96317.44
2023-12-24T14:31:26.185Z,96320.86
2023-12-24T14:33:59.795Z,96326.01
2023-12-24T14:36:33.888Z,96337.13
2023-12-24T14:39:08.368Z,96324.29
2023-12-24T14:41:42.093Z,96324.28
2023-12-24T14:44:15.711Z,96326.01
2023-12-24T14:46:49.527Z,96329.42
2023-12-24T14:49:23.342Z,96333.70
2023-12-24T14:51:57.345Z,96330.27
2023-12-24T14:54:30.736Z,96337.99
2023-12-24T14:57:05.491Z,96333.71
2023-12-24T14:59:39.360Z,96334.55
2023-12-24T15:02:13.505Z,96339.68
2023-12-24T15:04:47.238Z,96331.12
2023-12-24T15:07:21.401Z,96339.70
2023-12-24T15:09:55.032Z,96328.55
2023-12-24T15:12:28.689Z,96343.11
2023-12-24T15:15:02.176Z,96345.67
2023-12-24T15:17:36.990Z,96343.98
2023-12-24T15:20:13.143Z,96351.66
2023-12-24T15:22:46.961Z,96354.23
2023-12-24T15:25:21.052Z,96355.93
2023-12-24T15:27:54.678Z,96367.08
2023-12-24T15:30:29.004Z,96379.06
2023-12-24T15:33:04.295Z,96373.05
2023-12-24T15:35:38.496Z,96383.31
2023-12-24T15:38:12.208Z,96386.76
2023-12-24T15:40:46.131Z,96393.59
2023-12-24T15:43:19.566Z,96392.74
2023-12-24T15:45:53.192Z,96402.16
2023-12-24T15:48:26.777Z,96397.88
2023-12-24T15:51:00.334Z,96406.44
2023-12-24T15:53:33.962Z,96404.72
2023-12-24T15:56:09.877Z,96408.14
2023-12-24T15:58:43.605Z,96404.70
2023-12-24T16:01:17.702Z,96414.97
2023-12-24T16:03:51.645Z,96422.67
2023-12-24T16:06:25.314Z,96421.83
2023-12-24T16:08:58.904Z,96426.95
2023-12-24T16:11:32.906Z,96432.11
2023-12-24T16:14:08.446Z,96424.41
2023-12-24T16:16:42.027Z,96429.54
2023-12-24T16:19:16.182Z,96431.27
2023-12-24T16:21:49.825Z,96441.53
2023-12-24T16:24:24.505Z,96447.53
2023-12-24T16:26:58.192Z,96452.66
2023-12-24T16:29:32.242Z,96451.81
2023-12-24T16:32:07.061Z,96444.09
2023-12-24T16:34:40.650Z,96447.53
2023-12-24T16:37:14.661Z,96417.53
2023-12-24T16:39:48.201Z,96450.09
2023-12-24T16:42:21.925Z,96450.94
2023-12-24T16:44:55.732Z,96462.92
2023-12-24T16:47:29.592Z,96465.48
2023-12-24T16:50:03.600Z,96468.92
2023-12-24T16:52:37.040Z,96481.75
2023-12-24T16:55:11.691Z,96479.19
2023-12-24T16:57:45.641Z,96483.47
2023-12-24T17:00:20.505Z,96487.77
2023-12-24T17:02:54.267Z,96501.45
2023-12-24T17:05:28.190Z,96507.47
2023-12-24T17:08:01.895Z,96499.73
2023-12-24T17:10:35.520Z,96503.16
2023-12-24T17:13:09.320Z,96516.00
2023-12-24T17:15:44.365Z,96514.31
2023-12-24T17:18:18.051Z,96516.88
2023-12-24T17:20:52.468Z,96520.28
2023-12-24T17:23:26.447Z,96525.45
2023-12-24T17:26:00.192Z,96530.58
2023-12-24T17:28:33.592Z,96527.16
2023-12-24T17:31:09.499Z,96531.45
2023-12-24T17:33:44.910Z,96535.71
2023-12-24T17:36:22.756Z,96537.41
2023-12-24T17:38:54.763Z,96528.86
2023-12-24T17:41:28.241Z,96531.42
2023-12-24T17:44:01.809Z,96528.86
2023-12-24T17:46:35.625Z,96537.41
2023-12-24T17:49:09.154Z,96546.84
2023-12-24T17:51:44.161Z,96536.56
2023-12-24T17:54:17.922Z,96545.13
2023-12-24T17:56:51.999Z,96546.85
2023-12-24T17:59:25.607Z,96544.30
2023-12-24T18:01:59.216Z,96547.73
2023-12-24T18:04:32.849Z,96551.15
2023-12-24T18:07:07.163Z,96561.45
2023-12-24T18:09:41.137Z,96564.89
2023-12-24T18:12:16.566Z,96574.30
2023-12-24T18:14:50.344Z,96572.59
2023-12-24T18:17:23.917Z,96564.88
2023-12-24T18:19:57.644Z,96561.46
2023-12-24T18:22:31.624Z,96570.87
2023-12-24T18:25:05.351Z,96562.29
2023-12-24T18:27:39.069Z,96571.72
2023-12-24T18:30:14.578Z,96577.71
2023-12-24T18:32:48.264Z,96578.59
2023-12-24T18:35:22.370Z,96575.14
2023-12-24T18:37:56.239Z,96580.28
2023-12-24T18:40:29.823Z,96582.00
2023-12-24T18:43:03.753Z,96575.99
2023-12-24T18:45:37.141Z,96585.42
2023-12-24T18:48:12.105Z,96589.69
2023-12-24T18:50:45.993Z,96588.00
2023-12-24T18:53:19.874Z,96585.40
2023-12-24T18:55:53.517Z,96581.14
2023-12-24T18:58:28.280Z,96580.27
2023-12-24T19:01:01.923Z,96590.53
2023-12-24T19:03:35.379Z,96589.69
2023-12-24T19:06:09.691Z,96592.28
2023-12-24T19:08:43.373Z,96592.27
2023-12-24T19:11:17.544Z,96590.58
2023-12-24T19:13:51.580Z,96587.98
2023-12-24T19:16:25.207Z,96584.55
2023-12-24T19:18:58.762Z,96593.11
2023-12-24T19:21:32.795Z,96594.83
2023-12-24T19:24:07.148Z,96594.83
2023-12-24T19:26:41.876Z,96596.55
2023-12-24T19:29:15.218Z,96606.83
2023-12-24T19:31:49.253Z,96601.66
2023-12-24T19:34:23.330Z,96600.82
2023-12-24T19:36:58.887Z,96601.64
2023-12-24T19:39:32.370Z,96607.63
2023-12-24T19:42:06.454Z,96583.59
2023-12-24T19:44:39.934Z,96607.63
2023-12-24T19:47:13.482Z,96614.45
2023-12-24T19:49:47.051Z,96615.34
2023-12-24T19:52:32.736Z,96610.17
2023-12-24T19:54:56.700Z,96622.16
2023-12-24T19:57:30.276Z,96616.16
2023-12-24T20:00:04.027Z,96617.00
2023-12-24T20:02:40.645Z,96619.56
2023-12-24T20:05:17.996Z,96623.86
2023-12-24T20:07:51.502Z,96627.27
2023-12-24T20:10:25.196Z,96630.71
2023-12-24T20:12:59.375Z,96628.14
2023-12-24T20:15:34.046Z,96627.27
2023-12-24T20:18:08.662Z,96629.83
2023-12-24T20:20:42.435Z,96634.97
2023-12-24T20:23:16.026Z,96628.99
2023-12-24T20:25:49.658Z,96632.41
2023-12-24T20:28:23.467Z,96640.95
2023-12-24T20:30:57.270Z,96634.97
2023-12-24T20:33:31.100Z,96634.97
2023-12-24T20:36:06.695Z,96644.36
2023-12-24T20:38:40.605Z,96641.80
2023-12-24T20:41:14.160Z,96645.24
2023-12-24T20:43:47.781Z,96631.56
2023-12-24T20:46:22.544Z,96646.97
2023-12-24T20:48:56.180Z,96635.81
2023-12-24T20:51:30.733Z,96652.95
2023-12-24T20:54:04.313Z,96657.23
2023-12-24T20:56:38.412Z,96664.06
2023-12-24T20:59:12.231Z,96666.62
2023-12-24T21:01:45.665Z,96664.06
2023-12-24T21:04:19.110Z,96664.06
2023-12-24T21:06:52.591Z,96670.87
2023-12-24T21:09:26.194Z,96670.88
2023-12-24T21:11:59.937Z,96674.33
2023-12-24T21:14:33.638Z,96676.05
2023-12-24T21:17:07.448Z,96668.31
2023-12-24T21:19:42.681Z,96667.44
2023-12-24T21:22:16.394Z,96670.00
2023-12-24T21:24:50.033Z,96671.69
2023-12-24T21:27:23.459Z,96673.41
2023-12-24T21:29:57.021Z,96670.87
2023-12-24T21:32:30.497Z,96673.45
2023-12-24T21:35:04.219Z,96669.16
2023-12-24T21:37:37.934Z,96666.55
2023-12-24T21:40:13.055Z,96673.36
2023-12-24T21:42:46.528Z,96669.95
2023-12-24T21:45:20.181Z,96677.66
2023-12-24T21:47:54.621Z,96675.09
2023-12-24T21:50:28.578Z,96671.64
2023-12-24T21:53:03.680Z,96669.06
2023-12-24T21:55:37.482Z,96675.05
2023-12-24T21:58:12.019Z,96676.81
2023-12-24T22:00:51.648Z,96675.09
2023-12-24T22:03:28.046Z,96681.10
2023-12-24T22:05:55.774Z,96672.52
2023-12-24T22:08:29.530Z,96674.25
2023-12-24T22:11:03.243Z,96674.25
2023-12-24T22:13:39.249Z,96679.38
2023-12-24T22:16:16.262Z,96682.83
2023-12-24T22:18:50.806Z,96683.72
2023-12-24T22:21:24.871Z,96682.03
2023-12-24T22:23:58.508Z,96683.72
2023-12-24T22:26:32.583Z,96678.59
2023-12-24T22:29:06.255Z,96682.00
2023-12-24T22:31:39.774Z,96681.98
2023-12-24T22:34:13.383Z,96685.41
2023-12-24T22:36:47.029Z,96687.17
2023-12-24T22:39:20.556Z,96686.33
2023-12-24T22:41:54.128Z,96688.89
2023-12-24T22:44:29.320Z,96692.31
2023-12-24T22:47:03.463Z,96687.17
2023-12-24T22:49:37.058Z,96694.03
2023-12-24T22:52:10.496Z,96689.74
2023-12-24T22:54:44.053Z,96691.46
2023-12-24T22:57:17.608Z,96698.33
2023-12-24T22:59:51.339Z,96691.42
2023-12-24T23:02:25.015Z,96694.83
2023-12-24T23:04:58.557Z,96695.67
2023-12-24T23:07:33.736Z,96706.77
2023-12-24T23:10:09.163Z,96705.01
2023-12-24T23:12:42.665Z,96702.44
2023-12-24T23:15:16.204Z,96698.19
2023-12-24T23:17:50.854Z,96701.59
2023-12-24T23:20:24.519Z,96697.30
2023-12-24T23:22:58.177Z,96698.98
2023-12-24T23:25:32.000Z,96697.25
2023-12-24T23:28:06.532Z,96698.14
2023-12-24T23:30:40.327Z,96694.73
2023-12-24T23:33:13.809Z,96706.67
2023-12-24T23:35:57.548Z,96704.95
2023-12-24T23:38:22.832Z,96702.39
2023-12-24T23:40:56.463Z,96717.79
2023-12-24T23:43:29.951Z,96703.27
2023-12-24T23:46:04.196Z,96716.95
2023-12-24T23:48:38.519Z,96727.21
2023-12-24T23:51:12.416Z,96717.78
2023-12-24T23:53:47.711Z,96714.38
2023-12-24T23:56:21.143Z,96722.03
2023-12-24T23:58:54.915Z,96716.88
